createdAt,value
2019-04-05T00:00:10.370Z,6.28
2019-04-05T00:01:10.338Z,6.33
2019-04-05T00:02:10.329Z,6.38
2019-04-05T00:03:10.315Z,6.25
2019-04-05T00:04:10.305Z,6.26
2019-04-05T00:05:10.313Z,6.19
2019-04-05T00:06:10.282Z,6.28
2019-04-05T00:07:10.269Z,6.26
2019-04-05T00:08:10.263Z,6.19
2019-04-05T00:09:10.247Z,6.26
2019-04-05T00:10:10.252Z,6.11
2019-04-05T00:11:10.227Z,6.22
2019-04-05T00:12:10.211Z,6.21
2019-04-05T00:13:10.200Z,6.14
2019-04-05T00:14:10.191Z,6.22
2019-04-05T00:15:15.636Z,6.19
2019-04-05T00:16:11.219Z,6.14
2019-04-05T00:17:10.241Z,6.16
2019-04-05T00:18:10.143Z,6.21
2019-04-05T00:19:10.219Z,6.26
2019-04-05T00:20:10.139Z,6.26
2019-04-05T00:21:10.108Z,6.16
2019-04-05T00:22:10.098Z,6.18
2019-04-05T00:23:10.086Z,6.22
2019-04-05T00:24:10.075Z,6.13
2019-04-05T00:25:10.080Z,6.10
2019-04-05T00:26:10.054Z,6.18
2019-04-05T00:27:10.037Z,6.19
2019-04-05T00:28:10.029Z,6.09
2019-04-05T00:29:10.017Z,6.32
2019-04-05T00:30:10.023Z,6.29
2019-04-05T00:31:09.991Z,6.10
2019-04-05T00:32:09.983Z,6.19
2019-04-05T00:33:09.969Z,6.21
2019-04-05T00:34:09.957Z,6.29
2019-04-05T00:35:09.969Z,6.28
2019-04-05T00:36:09.934Z,6.18
2019-04-05T00:37:09.923Z,6.18
2019-04-05T00:38:09.911Z,6.21
2019-04-05T00:39:09.905Z,6.18
2019-04-05T00:40:09.888Z,6.25
2019-04-05T00:41:09.894Z,6.21
2019-04-05T00:42:09.864Z,6.09
2019-04-05T00:43:09.851Z,6.19
2019-04-05T00:44:09.840Z,6.07
2019-04-05T00:45:09.830Z,6.19
2019-04-05T00:46:09.837Z,6.09
2019-04-05T00:47:09.807Z,6.16
2019-04-05T00:48:09.795Z,6.16
2019-04-05T00:49:09.785Z,6.16
2019-04-05T00:50:09.773Z,6.13
2019-04-05T00:51:09.779Z,6.13
2019-04-05T00:52:09.749Z,6.14
2019-04-05T00:53:09.736Z,6.10
2019-04-05T00:54:09.733Z,6.11
2019-04-05T00:55:09.715Z,6.07
2019-04-05T00:56:09.720Z,6.11
2019-04-05T00:57:09.689Z,6.07
2019-04-05T00:58:09.680Z,6.09
2019-04-05T00:59:09.667Z,6.13
2019-04-05T01:00:09.656Z,6.14
2019-04-05T01:01:09.663Z,6.04
2019-04-05T01:02:09.633Z,6.14
2019-04-05T01:03:09.619Z,6.11
2019-04-05T01:04:09.609Z,6.07
2019-04-05T01:05:09.599Z,6.09
2019-04-05T01:06:09.614Z,6.10
2019-04-05T01:07:09.576Z,6.09
2019-04-05T01:08:09.562Z,6.11
2019-04-05T01:09:09.550Z,6.06
2019-04-05T01:10:09.542Z,6.07
2019-04-05T01:11:09.527Z,6.25
2019-04-05T01:12:09.533Z,6.09
2019-04-05T01:13:09.505Z,6.11
2019-04-05T01:14:09.495Z,6.11
2019-04-05T01:15:09.480Z,6.18
2019-04-05T01:16:09.470Z,6.04
2019-04-05T01:17:09.478Z,5.95
2019-04-05T01:18:09.447Z,6.00
2019-04-05T01:19:09.529Z,6.07
2019-04-05T01:20:09.426Z,5.96
2019-04-05T01:21:09.430Z,6.07
2019-04-05T01:22:09.500Z,6.04
2019-04-05T01:23:09.391Z,6.01
2019-04-05T01:24:09.379Z,6.11
2019-04-05T01:25:09.367Z,6.04
2019-04-05T01:26:09.373Z,6.10
2019-04-05T01:27:09.340Z,6.16
2019-04-05T01:28:09.329Z,6.06
2019-04-05T01:29:09.318Z,6.09
2019-04-05T01:30:09.306Z,6.06
2019-04-05T01:31:09.312Z,6.14
2019-04-05T01:32:09.283Z,6.22
2019-04-05T01:33:09.272Z,6.11
2019-04-05T01:34:09.261Z,6.09
2019-04-05T01:35:09.251Z,6.13
2019-04-05T01:36:09.254Z,6.09
2019-04-05T01:37:09.227Z,6.06
2019-04-05T01:38:09.216Z,6.14
2019-04-05T01:39:09.201Z,6.11
2019-04-05T01:40:09.191Z,6.18
2019-04-05T01:41:09.199Z,6.07
2019-04-05T01:42:09.167Z,6.09
2019-04-05T01:43:09.157Z,6.04
2019-04-05T01:44:09.143Z,6.03
2019-04-05T01:45:09.134Z,6.10
2019-04-05T01:46:09.140Z,5.95
2019-04-05T01:47:09.108Z,6.10
2019-04-05T01:48:09.159Z,6.14
2019-04-05T01:49:09.086Z,6.06
2019-04-05T01:50:09.075Z,6.10
2019-04-05T01:51:09.087Z,5.96
2019-04-05T01:52:09.051Z,6.13
2019-04-05T01:53:09.040Z,6.14
2019-04-05T01:54:09.031Z,6.10
2019-04-05T01:55:09.020Z,6.10
2019-04-05T01:56:09.005Z,6.16
2019-04-05T01:57:09.016Z,6.10
2019-04-05T01:58:08.982Z,6.18
2019-04-05T01:59:08.993Z,6.03
2019-04-05T02:00:08.966Z,6.00
2019-04-05T02:01:08.949Z,6.07
2019-04-05T02:02:08.935Z,6.01
2019-04-05T02:03:08.924Z,6.09
2019-04-05T02:04:08.913Z,6.03
2019-04-05T02:05:08.921Z,5.93
2019-04-05T02:06:08.887Z,6.00
2019-04-05T02:07:08.886Z,6.14
2019-04-05T02:08:08.867Z,6.00
2019-04-05T02:09:08.856Z,6.04
2019-04-05T02:10:08.915Z,5.95
2019-04-05T02:11:08.834Z,6.09
2019-04-05T02:12:08.820Z,6.00
2019-04-05T02:13:08.809Z,6.07
2019-04-05T02:14:08.799Z,6.06
2019-04-05T02:15:08.786Z,6.07
2019-04-05T02:16:08.789Z,6.09
2019-04-05T02:17:08.762Z,5.95
2019-04-05T02:18:08.754Z,6.06
2019-04-05T02:19:08.742Z,6.00
2019-04-05T02:20:08.731Z,5.88
2019-04-05T02:21:08.733Z,5.93
2019-04-05T02:22:08.705Z,5.91
2019-04-05T02:23:08.694Z,5.92
2019-04-05T02:24:08.741Z,5.92
2019-04-05T02:25:08.672Z,6.00
2019-04-05T02:26:08.676Z,6.10
2019-04-05T02:27:08.649Z,6.00
2019-04-05T02:28:08.636Z,6.01
2019-04-05T02:29:08.624Z,5.98
2019-04-05T02:30:08.622Z,6.07
2019-04-05T02:31:08.625Z,6.03
2019-04-05T02:32:08.588Z,5.85
2019-04-05T02:33:08.586Z,5.98
2019-04-05T02:34:08.563Z,5.98
2019-04-05T02:35:08.553Z,6.07
2019-04-05T02:36:08.545Z,5.98
2019-04-05T02:37:08.550Z,5.98
2019-04-05T02:38:08.520Z,5.92
2019-04-05T02:39:08.511Z,5.96
2019-04-05T02:40:08.495Z,6.01
2019-04-05T02:41:08.484Z,6.03
2019-04-05T02:42:08.492Z,5.88
2019-04-05T02:43:08.461Z,5.86
2019-04-05T02:44:08.448Z,6.00
2019-04-05T02:45:08.438Z,6.01
2019-04-05T02:46:22.563Z,5.96
2019-04-05T02:47:09.433Z,5.96
2019-04-05T02:48:08.401Z,5.96
2019-04-05T02:49:08.390Z,5.96
2019-04-05T02:50:08.380Z,5.96
2019-04-05T02:51:08.373Z,5.89
2019-04-05T02:52:08.378Z,5.88
2019-04-05T02:53:08.347Z,5.89
2019-04-05T02:54:08.333Z,6.03
2019-04-05T02:55:08.323Z,5.92
2019-04-05T02:56:08.311Z,5.91
2019-04-05T02:57:08.338Z,5.88
2019-04-05T02:58:08.289Z,5.91
2019-04-05T02:59:08.275Z,6.00
2019-04-05T03:00:08.265Z,5.96
2019-04-05T03:01:08.255Z,5.85
2019-04-05T03:02:08.239Z,5.82
2019-04-05T03:03:08.250Z,5.95
2019-04-05T03:04:08.223Z,6.00
2019-04-05T03:05:08.211Z,5.92
2019-04-05T03:06:08.195Z,6.09
2019-04-05T03:07:08.183Z,6.14
2019-04-05T03:08:08.208Z,5.98
2019-04-05T03:09:08.161Z,6.07
2019-04-05T03:10:08.146Z,5.96
2019-04-05T03:11:08.135Z,6.10
2019-04-05T03:12:08.126Z,6.04
2019-04-05T03:13:08.134Z,5.93
2019-04-05T03:14:08.100Z,6.04
2019-04-05T03:15:08.089Z,6.01
2019-04-05T03:16:08.079Z,5.98
2019-04-05T03:17:08.068Z,5.89
2019-04-05T03:18:08.055Z,5.98
2019-04-05T03:19:08.064Z,6.07
2019-04-05T03:20:08.034Z,6.00
2019-04-05T03:21:08.021Z,6.00
2019-04-05T03:22:08.027Z,6.01
2019-04-05T03:23:07.995Z,5.92
2019-04-05T03:24:08.003Z,6.04
2019-04-05T03:25:07.974Z,5.98
2019-04-05T03:26:07.959Z,5.89
2019-04-05T03:27:07.950Z,5.89
2019-04-05T03:28:07.943Z,6.03
2019-04-05T03:29:07.945Z,5.95
2019-04-05T03:30:07.923Z,6.04
2019-04-05T03:31:07.911Z,5.83
2019-04-05T03:32:07.914Z,6.06
2019-04-05T03:33:07.881Z,6.01
2019-04-05T03:34:07.904Z,5.83
2019-04-05T03:35:07.858Z,6.00
2019-04-05T03:36:07.847Z,5.95
2019-04-05T03:37:07.836Z,5.92
2019-04-05T03:38:07.822Z,5.95
2019-04-05T03:39:07.855Z,6.03
2019-04-05T03:40:07.804Z,6.03
2019-04-05T03:41:07.787Z,6.09
2019-04-05T03:42:07.785Z,6.09
2019-04-05T03:43:07.767Z,6.01
2019-04-05T03:44:07.753Z,6.01
2019-04-05T03:45:07.765Z,6.10
2019-04-05T03:46:07.729Z,5.96
2019-04-05T03:47:07.730Z,5.96
2019-04-05T03:48:07.707Z,6.01
2019-04-05T03:49:07.695Z,6.00
2019-04-05T03:50:07.703Z,6.03
2019-04-05T03:51:07.673Z,5.98
2019-04-05T03:52:07.662Z,6.00
2019-04-05T03:53:07.653Z,5.96
2019-04-05T03:54:07.637Z,5.92
2019-04-05T03:55:07.642Z,5.98
2019-04-05T03:56:07.616Z,5.92
2019-04-05T03:57:07.600Z,5.93
2019-04-05T03:58:07.596Z,5.93
2019-04-05T03:59:07.580Z,5.92
2019-04-05T04:00:07.586Z,5.88
2019-04-05T04:01:07.553Z,5.83
2019-04-05T04:02:07.570Z,5.91
2019-04-05T04:03:07.533Z,5.95
2019-04-05T04:04:07.534Z,5.98
2019-04-05T04:05:07.533Z,6.04
2019-04-05T04:06:07.503Z,5.93
2019-04-05T04:07:07.498Z,6.03
2019-04-05T04:08:07.478Z,6.00
2019-04-05T04:09:07.462Z,5.89
2019-04-05T04:10:07.462Z,5.96
2019-04-05T04:11:07.458Z,5.93
2019-04-05T04:12:07.430Z,5.91
2019-04-05T04:13:07.414Z,6.03
2019-04-05T04:14:07.403Z,5.92
2019-04-05T04:15:07.399Z,6.00
2019-04-05T04:16:07.404Z,5.88
2019-04-05T04:17:12.582Z,5.93
2019-04-05T04:18:08.358Z,5.91
2019-04-05T04:19:07.354Z,6.03
2019-04-05T04:20:07.336Z,5.88
2019-04-05T04:21:07.329Z,5.96
2019-04-05T04:23:16.155Z,6.01
2019-04-05T04:24:16.129Z,5.96
2019-04-05T04:25:16.115Z,5.86
2019-04-05T04:26:16.124Z,6.00
2019-04-05T04:27:16.090Z,5.89
2019-04-05T04:28:16.083Z,5.95
2019-04-05T04:29:16.069Z,5.95
2019-04-05T04:30:16.062Z,5.95
2019-04-05T04:31:16.048Z,5.91
2019-04-05T04:32:16.056Z,6.00
2019-04-05T04:33:16.022Z,5.88
2019-04-05T04:34:16.028Z,6.03
2019-04-05T04:35:16.000Z,5.98
2019-04-05T04:36:15.987Z,5.96
2019-04-05T04:37:15.991Z,5.92
2019-04-05T04:38:15.963Z,5.89
2019-04-05T04:39:15.953Z,6.00
2019-04-05T04:40:15.952Z,5.86
2019-04-05T04:41:15.929Z,5.91
2019-04-05T04:42:15.939Z,5.96
2019-04-05T04:43:15.905Z,5.98
2019-04-05T04:44:15.892Z,5.82
2019-04-05T04:45:15.882Z,5.93
2019-04-05T04:46:15.870Z,5.88
2019-04-05T04:47:26.304Z,5.98
2019-04-05T04:48:16.845Z,5.95
2019-04-05T04:49:15.842Z,5.93
2019-04-05T04:50:15.824Z,5.89
2019-04-05T04:51:15.811Z,6.04
2019-04-05T04:52:15.831Z,6.03
2019-04-05T04:53:15.789Z,5.88
2019-04-05T04:54:15.777Z,6.00
2019-04-05T04:55:15.764Z,6.03
2019-04-05T04:56:15.753Z,6.07
2019-04-05T04:57:15.747Z,5.95
2019-04-05T04:58:15.749Z,6.18
2019-04-05T04:59:15.718Z,6.09
2019-04-05T05:00:15.708Z,6.04
2019-04-05T05:01:15.697Z,6.16
2019-04-05T05:02:15.685Z,6.13
2019-04-05T05:03:15.693Z,6.11
2019-04-05T05:04:15.667Z,6.11
2019-04-05T05:05:15.652Z,6.18
2019-04-05T05:06:15.638Z,6.19
2019-04-05T05:07:15.632Z,6.18
2019-04-05T05:08:15.638Z,6.06
2019-04-05T05:09:15.602Z,6.21
2019-04-05T05:10:15.593Z,6.19
2019-04-05T05:11:15.587Z,6.18
2019-04-05T05:12:15.573Z,6.18
2019-04-05T05:13:15.588Z,6.11
2019-04-05T05:14:15.551Z,6.21
2019-04-05T05:15:15.541Z,6.21
2019-04-05T05:16:15.528Z,6.13
2019-04-05T05:17:15.514Z,6.10
2019-04-05T05:18:15.501Z,6.21
2019-04-05T05:19:15.508Z,6.19
2019-04-05T05:20:15.484Z,6.10
2019-04-05T05:21:15.467Z,6.25
2019-04-05T05:22:15.463Z,6.18
2019-04-05T05:23:15.504Z,6.11
2019-04-05T05:24:15.477Z,6.10
2019-04-05T05:25:15.422Z,6.19
2019-04-05T05:26:15.408Z,6.16
2019-04-05T05:27:15.407Z,6.14
2019-04-05T05:28:15.390Z,6.11
2019-04-05T06:49:58.234Z,6.90
2019-04-05T06:51:03.651Z,6.91
2019-04-05T06:51:49.016Z,6.89
2019-04-05T06:53:14.638Z,7.08
2019-04-05T06:54:40.278Z,7.07
2019-04-05T06:55:45.771Z,7.20
2019-04-05T06:57:11.388Z,7.40
2019-04-05T06:58:11.383Z,7.29
2019-04-05T06:59:11.372Z,7.41
2019-04-05T07:00:11.375Z,7.38
2019-04-05T07:01:11.343Z,7.41
2019-04-05T07:02:11.391Z,7.55
2019-04-05T07:03:13.635Z,7.45
2019-04-05T07:04:11.307Z,7.52
2019-04-05T07:05:11.330Z,7.62
2019-04-05T07:06:11.286Z,7.63
2019-04-05T07:07:11.276Z,7.72
2019-04-05T07:08:11.264Z,7.82
2019-04-05T07:09:11.251Z,7.92
2019-04-05T07:10:11.247Z,7.97
2019-04-05T07:11:11.249Z,7.96
2019-04-05T07:12:11.230Z,8.03
2019-04-05T07:13:11.207Z,8.07
2019-04-05T07:14:11.193Z,8.20
2019-04-05T07:15:11.182Z,8.14
2019-04-05T07:16:11.346Z,8.07
2019-04-05T07:17:11.158Z,8.11
2019-04-05T07:18:11.149Z,8.29
2019-04-05T07:19:11.184Z,8.33
2019-04-05T07:20:11.126Z,8.30
2019-04-05T07:21:11.133Z,8.33
2019-04-05T07:22:11.098Z,8.35
2019-04-05T07:23:11.096Z,8.36
2019-04-05T07:24:11.076Z,8.33
2019-04-05T07:25:11.065Z,8.33
2019-04-05T07:26:11.054Z,8.53
2019-04-05T07:27:11.064Z,8.54
2019-04-05T07:28:11.031Z,8.54
2019-04-05T07:29:11.015Z,8.53
2019-04-05T07:30:11.005Z,8.50
2019-04-05T07:31:10.991Z,8.60
2019-04-05T07:32:11.003Z,8.55
2019-04-05T07:33:10.967Z,8.51
2019-04-05T07:34:10.956Z,8.53
2019-04-05T07:35:10.949Z,8.55
2019-04-05T07:36:10.932Z,8.62
2019-04-05T07:37:10.961Z,8.55
2019-04-05T07:38:10.909Z,8.73
2019-04-05T07:39:10.898Z,8.68
2019-04-05T07:40:10.884Z,8.83
2019-04-05T07:41:10.874Z,8.87
2019-04-05T07:42:10.860Z,8.93
2019-04-05T07:43:10.868Z,8.83
2019-04-05T07:44:10.839Z,8.90
2019-04-05T07:45:10.827Z,8.99
2019-04-05T07:46:10.866Z,9.16
2019-04-05T07:47:10.805Z,9.20
2019-04-05T07:48:10.810Z,9.12
2019-04-05T07:49:10.778Z,9.05
2019-04-05T07:50:10.768Z,9.09
2019-04-05T07:51:10.759Z,9.12
2019-04-05T07:52:13.034Z,9.10
2019-04-05T07:53:10.749Z,9.15
2019-04-05T07:54:10.720Z,9.21
2019-04-05T07:55:10.708Z,9.25
2019-04-05T07:56:10.696Z,9.32
2019-04-05T07:57:10.694Z,9.35
2019-04-05T07:58:10.696Z,9.42
2019-04-05T07:59:10.663Z,9.46
2019-04-05T08:00:10.649Z,9.31
2019-04-05T08:01:10.638Z,9.32
2019-04-05T08:02:10.628Z,9.31
2019-04-05T08:03:10.615Z,9.24
2019-04-05T08:04:10.622Z,9.34
2019-04-05T08:05:10.593Z,9.28
2019-04-05T08:06:10.579Z,9.27
2019-04-05T08:07:10.570Z,9.32
2019-04-05T08:08:10.556Z,9.49
2019-04-05T08:09:10.565Z,9.43
2019-04-05T08:10:10.535Z,9.43
2019-04-05T08:11:10.520Z,9.52
2019-04-05T08:12:10.512Z,9.45
2019-04-05T08:13:10.498Z,9.38
2019-04-05T08:14:10.506Z,9.45
2019-04-05T08:15:10.474Z,9.25
2019-04-05T08:16:10.465Z,9.30
2019-04-05T08:17:10.451Z,9.27
2019-04-05T08:18:10.442Z,9.27
2019-04-05T08:19:10.447Z,9.09
2019-04-05T08:20:10.418Z,9.05
2019-04-05T08:21:10.406Z,9.01
2019-04-05T08:22:10.392Z,9.12
2019-04-05T08:23:10.382Z,9.06
2019-04-05T08:24:10.388Z,9.02
2019-04-05T08:25:10.361Z,9.05
2019-04-05T08:26:10.350Z,8.99
2019-04-05T08:27:10.335Z,8.86
2019-04-05T08:28:10.325Z,8.83
2019-04-05T08:29:10.335Z,8.90
2019-04-05T08:30:10.301Z,8.90
2019-04-05T08:31:11.417Z,8.76
2019-04-05T08:32:14.723Z,8.78
2019-04-05T08:33:10.265Z,8.79
2019-04-05T08:34:10.254Z,8.69
2019-04-05T08:35:10.259Z,8.78
2019-04-05T08:36:10.229Z,8.86
2019-04-05T08:37:10.218Z,8.73
2019-04-05T08:38:10.205Z,8.76
2019-04-05T08:39:10.194Z,8.83
2019-04-05T08:40:10.201Z,8.65
2019-04-05T08:41:10.168Z,8.65
2019-04-05T08:42:11.029Z,8.72
2019-04-05T08:43:10.144Z,8.76
2019-04-05T08:44:10.134Z,8.71
2019-04-05T08:45:10.160Z,8.91
2019-04-05T08:46:10.127Z,8.87
2019-04-05T08:47:10.103Z,8.91
2019-04-05T08:48:10.084Z,9.02
2019-04-05T08:49:11.439Z,8.99
2019-04-05T08:50:10.061Z,9.21
2019-04-05T08:51:10.070Z,9.24
2019-04-05T08:52:10.040Z,9.24
2019-04-05T08:53:10.027Z,9.30
2019-04-05T08:54:10.087Z,9.38
2019-04-05T08:55:10.004Z,9.48
2019-04-05T08:56:10.013Z,9.63
2019-04-05T08:57:09.982Z,9.79
2019-04-05T08:58:09.969Z,9.83
2019-04-05T08:59:09.960Z,9.97
2019-04-05T09:00:09.949Z,10.03
2019-04-05T09:01:09.959Z,10.06
2019-04-05T09:02:09.922Z,10.15
2019-04-05T09:03:11.933Z,10.09
2019-04-05T09:04:09.901Z,9.83
2019-04-05T09:05:09.909Z,9.68
2019-04-05T09:06:09.878Z,9.58
2019-04-05T09:07:09.882Z,9.46
2019-04-05T09:08:09.852Z,9.56
2019-04-05T09:09:09.841Z,9.67
2019-04-05T09:10:09.830Z,9.64
2019-04-05T09:11:09.818Z,9.75
2019-04-05T09:12:09.825Z,9.79
2019-04-05T09:13:09.795Z,9.89
2019-04-05T09:14:09.783Z,9.97
2019-04-05T09:15:09.772Z,10.09
2019-04-05T09:16:11.746Z,10.32
2019-04-05T09:17:09.766Z,10.40
2019-04-05T09:18:09.741Z,10.53
2019-04-05T09:19:22.797Z,10.73
2019-04-05T09:20:10.713Z,10.71
2019-04-05T09:21:10.195Z,10.66
2019-04-05T09:22:09.711Z,10.77
2019-04-05T09:23:09.678Z,10.84
2019-04-05T09:24:09.666Z,10.78
2019-04-05T09:25:09.656Z,10.88
2019-04-05T09:26:09.643Z,10.70
2019-04-05T09:27:09.649Z,10.70
2019-04-05T09:28:09.618Z,10.73
2019-04-05T09:29:09.623Z,10.70
2019-04-05T09:30:09.596Z,10.53
2019-04-05T09:31:09.584Z,10.34
2019-04-05T09:32:09.572Z,10.12
2019-04-05T09:33:09.582Z,10.24
2019-04-05T09:34:09.549Z,10.06
2019-04-05T09:35:09.537Z,10.17
2019-04-05T09:36:09.528Z,10.10
2019-04-05T09:37:09.515Z,10.22
2019-04-05T09:38:09.525Z,10.10
2019-04-05T09:39:14.996Z,10.10
2019-04-05T09:40:10.478Z,10.09
2019-04-05T09:41:09.468Z,10.07
2019-04-05T09:42:09.456Z,10.03
2019-04-05T09:43:09.445Z,9.96
2019-04-05T09:44:09.454Z,10.01
2019-04-05T09:45:09.420Z,10.21
2019-04-05T09:46:09.409Z,10.28
2019-04-05T09:47:09.400Z,10.30
2019-04-05T09:48:09.386Z,10.44
2019-04-05T09:49:09.395Z,10.42
2019-04-05T09:50:09.363Z,10.58
2019-04-05T09:51:09.353Z,10.65
2019-04-05T09:52:09.346Z,10.65
2019-04-05T09:53:09.395Z,10.58
2019-04-05T09:54:09.336Z,10.47
2019-04-05T09:55:09.336Z,10.32
2019-04-05T09:56:09.293Z,10.26
2019-04-05T09:57:09.283Z,10.30
2019-04-05T09:58:10.292Z,10.09
2019-04-05T09:59:09.278Z,10.06
2019-04-05T10:00:09.248Z,10.00
2019-04-05T10:01:09.242Z,10.17
2019-04-05T10:02:09.234Z,10.25
2019-04-05T10:03:09.213Z,10.34
2019-04-05T10:04:09.220Z,10.33
2019-04-05T10:05:09.188Z,10.43
2019-04-05T10:06:09.178Z,10.47
2019-04-05T10:07:09.163Z,10.55
2019-04-05T10:08:09.152Z,10.70
2019-04-05T10:09:09.142Z,10.60
2019-04-05T10:10:09.148Z,10.65
2019-04-05T10:11:09.127Z,10.74
2019-04-05T10:12:09.108Z,10.65
2019-04-05T10:13:09.867Z,10.71
2019-04-05T10:14:09.083Z,10.73
2019-04-05T10:15:09.094Z,10.74
2019-04-05T10:16:09.061Z,10.58
2019-04-05T10:17:09.048Z,10.43
2019-04-05T10:18:09.035Z,10.34
2019-04-05T10:19:09.024Z,10.25
2019-04-05T10:20:09.070Z,10.07
2019-04-05T10:21:09.034Z,10.18
2019-04-05T10:22:09.004Z,10.25
2019-04-05T10:23:08.982Z,10.28
2019-04-05T10:24:08.966Z,10.46
2019-04-05T10:25:08.958Z,10.58
2019-04-05T10:26:08.966Z,10.71
2019-04-05T10:27:08.930Z,10.65
2019-04-05T10:28:08.933Z,10.76
2019-04-05T10:29:08.912Z,10.89
2019-04-05T10:30:08.896Z,10.99
2019-04-05T10:31:08.907Z,10.94
2019-04-05T10:32:08.875Z,10.73
2019-04-05T10:33:08.865Z,10.89
2019-04-05T10:34:08.854Z,10.66
2019-04-05T10:35:08.840Z,10.66
2019-04-05T10:36:08.843Z,10.40
2019-04-05T10:37:08.816Z,10.42
2019-04-05T10:38:08.802Z,10.22
2019-04-05T10:39:08.789Z,10.28
2019-04-05T10:40:08.780Z,10.10
2019-04-05T10:41:08.786Z,10.12
2019-04-05T10:42:08.754Z,10.21
2019-04-05T10:43:08.746Z,10.22
2019-04-05T10:44:08.730Z,10.28
2019-04-05T10:45:08.723Z,10.33
2019-04-05T10:46:08.729Z,10.42
2019-04-05T10:47:08.698Z,10.42
2019-04-05T10:48:08.685Z,10.43
2019-04-05T10:49:08.673Z,10.30
2019-04-05T10:50:08.662Z,10.30
2019-04-05T10:51:08.649Z,10.32
2019-04-05T10:52:08.662Z,10.40
2019-04-05T10:53:08.628Z,10.47
2019-04-05T10:54:09.561Z,10.43
2019-04-05T10:55:08.604Z,10.58
2019-04-05T10:56:08.592Z,10.53
2019-04-05T10:57:08.604Z,10.40
2019-04-05T10:58:08.570Z,10.59
2019-04-05T10:59:08.557Z,10.51
2019-04-05T11:00:08.550Z,10.68
2019-04-05T11:01:08.534Z,10.60
2019-04-05T11:02:08.560Z,10.62
2019-04-05T11:03:08.511Z,10.71
2019-04-05T11:04:08.503Z,10.76
2019-04-05T11:05:08.488Z,10.83
2019-04-05T11:06:08.477Z,10.86
2019-04-05T11:07:08.462Z,10.83
2019-04-05T11:08:08.483Z,10.91
2019-04-05T11:09:08.451Z,10.88
2019-04-05T11:10:08.432Z,10.86
2019-04-05T11:11:08.420Z,10.88
2019-04-05T11:12:08.781Z,10.77
2019-04-05T11:13:08.423Z,10.66
2019-04-05T11:14:13.973Z,10.52
2019-04-05T11:15:09.368Z,10.42
2019-04-05T11:16:08.355Z,10.40
2019-04-05T11:17:08.345Z,10.68
2019-04-05T11:18:08.380Z,10.73
2019-04-05T11:19:08.321Z,10.68
2019-04-05T11:20:20.799Z,10.74
2019-04-05T11:21:09.297Z,10.68
2019-04-05T11:22:08.285Z,10.56
2019-04-05T11:23:08.272Z,10.59
2019-04-05T11:24:08.288Z,10.59
2019-04-05T11:25:08.249Z,10.60
2019-04-05T11:26:08.238Z,10.68
2019-04-05T11:27:08.226Z,10.70
2019-04-05T11:28:08.215Z,10.74
2019-04-05T11:29:08.223Z,10.77
2019-04-05T11:30:08.191Z,10.83
2019-04-05T11:31:08.181Z,10.77
2019-04-05T11:32:08.166Z,10.92
2019-04-05T11:33:08.158Z,10.86
2019-04-05T11:34:08.146Z,10.89
2019-04-05T11:35:08.151Z,10.96
2019-04-05T11:36:08.121Z,11.10
2019-04-05T11:37:08.107Z,11.10
2019-04-05T11:38:08.096Z,11.09
2019-04-05T11:39:08.094Z,10.95
2019-04-05T11:40:08.096Z,10.94
2019-04-05T11:41:08.062Z,10.68
2019-04-05T11:42:08.052Z,10.76
2019-04-05T11:43:08.040Z,10.78
2019-04-05T11:44:08.026Z,10.62
2019-04-05T11:45:08.037Z,10.55
2019-04-05T11:46:08.005Z,10.44
2019-04-05T11:47:07.990Z,10.30
2019-04-05T11:48:07.982Z,10.10
2019-04-05T11:49:07.965Z,10.15
2019-04-05T11:50:07.958Z,10.21
2019-04-05T11:51:07.966Z,10.07
2019-04-05T11:52:07.934Z,10.15
2019-04-05T11:53:07.923Z,10.24
2019-04-05T11:54:07.910Z,10.30
2019-04-05T11:55:07.897Z,10.33
2019-04-05T11:56:14.541Z,10.28
2019-04-05T11:57:08.872Z,10.36
2019-04-05T11:58:07.863Z,10.21
2019-04-05T11:59:07.853Z,10.30
2019-04-05T12:00:07.863Z,10.39
2019-04-05T12:01:07.871Z,10.28
2019-04-05T12:02:07.821Z,10.30
2019-04-05T12:03:09.692Z,10.30
2019-04-05T12:04:07.792Z,10.43
2019-04-05T12:05:07.786Z,10.43
2019-04-05T12:06:07.771Z,10.53
2019-04-05T12:07:07.779Z,10.65
2019-04-05T12:08:07.747Z,10.53
2019-04-05T12:09:07.734Z,10.44
2019-04-05T12:10:07.723Z,10.66
2019-04-05T12:11:07.711Z,10.53
2019-04-05T12:12:07.749Z,10.62
2019-04-05T12:13:07.693Z,10.68
2019-04-05T12:14:07.680Z,10.62
2019-04-05T12:15:07.667Z,10.51
2019-04-05T12:16:10.368Z,10.36
2019-04-05T12:17:09.709Z,10.39
2019-04-05T12:18:07.682Z,10.30
2019-04-05T12:19:07.627Z,10.28
2019-04-05T12:20:07.608Z,10.30
2019-04-05T12:21:07.598Z,10.17
2019-04-05T12:22:09.122Z,9.93
2019-04-05T12:23:07.593Z,9.85
2019-04-05T12:24:07.575Z,9.82
2019-04-05T12:25:07.557Z,9.83
2019-04-05T12:26:07.539Z,9.86
2019-04-05T12:27:07.527Z,9.83
2019-04-05T12:28:10.475Z,9.82
2019-04-05T12:29:07.503Z,9.82
2019-04-05T12:30:07.491Z,9.83
2019-04-05T12:31:07.481Z,9.82
2019-04-05T12:32:07.467Z,9.88
2019-04-05T12:33:13.955Z,9.96
2019-04-05T12:34:08.468Z,10.04
2019-04-05T12:35:08.523Z,10.04
2019-04-05T12:36:07.421Z,10.01
2019-04-05T12:37:07.409Z,10.00
2019-04-05T12:38:07.404Z,10.10
2019-04-05T12:39:08.169Z,10.12
2019-04-05T12:40:09.576Z,10.04
2019-04-05T12:41:10.666Z,10.07
2019-04-05T12:42:07.352Z,10.25
2019-04-05T12:43:07.342Z,10.19
2019-04-05T12:44:07.367Z,10.24
2019-04-05T12:45:07.380Z,10.34
2019-04-05T12:46:07.313Z,10.37
2019-04-05T12:47:07.296Z,10.43
2019-04-05T12:48:07.285Z,10.25
2019-04-05T12:49:07.272Z,10.25
2019-04-05T12:51:16.370Z,10.26
2019-04-05T12:52:22.777Z,10.32
2019-04-05T12:53:17.066Z,10.21
2019-04-05T12:54:16.117Z,10.18
2019-04-05T12:55:16.042Z,10.26
2019-04-05T12:56:16.030Z,10.18
2019-04-05T12:57:16.021Z,10.12
2019-04-05T12:58:16.010Z,10.15
2019-04-05T12:59:15.997Z,10.04
2019-04-05T13:00:16.002Z,10.21
2019-04-05T13:01:15.973Z,10.14
2019-04-05T13:02:19.140Z,10.14
2019-04-05T13:03:16.967Z,10.09
2019-04-05T13:04:16.007Z,10.06
2019-04-05T13:05:15.948Z,10.00
2019-04-05T13:06:15.916Z,10.06
2019-04-05T13:07:15.906Z,10.00
2019-04-05T13:08:15.893Z,10.12
2019-04-05T13:09:15.993Z,10.19
2019-04-05T13:10:15.889Z,10.01
2019-04-05T13:11:15.878Z,10.04
2019-04-05T13:12:15.852Z,10.00
2019-04-05T13:13:15.841Z,9.88
2019-04-05T13:14:15.830Z,9.91
2019-04-05T13:15:17.325Z,9.81
2019-04-05T13:16:15.820Z,9.75
2019-04-05T13:17:15.791Z,9.76
2019-04-05T13:18:15.779Z,9.73
2019-04-05T13:19:15.766Z,9.75
2019-04-05T13:20:15.754Z,9.76
2019-04-05T13:21:15.786Z,9.78
2019-04-05T13:22:15.734Z,9.78
2019-04-05T13:23:15.720Z,9.75
2019-04-05T13:24:15.709Z,9.82
2019-04-05T13:25:15.700Z,9.83
2019-04-05T13:26:15.712Z,9.75
2019-04-05T13:27:15.695Z,9.64
2019-04-05T13:28:18.618Z,9.76
2019-04-05T13:29:15.687Z,9.75
2019-04-05T13:30:18.482Z,9.70
2019-04-05T13:31:18.232Z,9.68
2019-04-05T13:32:17.154Z,9.71
2019-04-05T13:33:15.604Z,9.66
2019-04-05T13:34:18.188Z,9.63
2019-04-05T13:35:16.907Z,9.76
2019-04-05T13:36:15.571Z,9.64
2019-04-05T13:37:20.395Z,9.61
2019-04-05T13:38:16.547Z,9.64
2019-04-05T13:39:15.533Z,9.50
2019-04-05T13:40:15.524Z,9.50
2019-04-05T13:41:15.510Z,9.49
2019-04-05T13:42:15.521Z,9.50
2019-04-05T13:43:17.740Z,9.42
2019-04-05T13:44:15.473Z,9.40
2019-04-05T13:45:15.460Z,9.46
2019-04-05T13:46:21.750Z,9.23
2019-04-05T13:47:16.478Z,9.30
2019-04-05T13:48:15.430Z,9.23
2019-04-05T13:49:15.415Z,9.38
2019-04-05T13:50:15.406Z,9.32
2019-04-05T13:51:27.305Z,9.27
2019-04-05T13:52:16.379Z,9.18
2019-04-05T13:53:15.390Z,9.32
2019-04-05T13:54:15.354Z,9.21
2019-04-05T13:55:15.342Z,9.23
2019-04-05T13:56:15.331Z,9.20
2019-04-05T13:57:15.319Z,9.28
2019-04-05T13:58:15.330Z,9.38
2019-04-05T13:59:15.294Z,9.25
2019-04-05T14:00:18.193Z,9.43
2019-04-05T14:01:15.277Z,9.49
2019-04-05T14:02:15.265Z,9.49
2019-04-05T14:03:15.251Z,9.50
2019-04-05T14:04:17.058Z,9.49
2019-04-05T14:05:15.228Z,9.57
2019-04-05T14:06:15.212Z,9.45
2019-04-05T14:07:15.203Z,9.57
2019-04-05T14:08:15.196Z,9.53
2019-04-05T14:09:15.655Z,9.45
2019-04-05T14:10:15.167Z,9.57
2019-04-05T14:11:15.154Z,9.52
2019-04-05T14:12:15.139Z,9.52
2019-04-05T14:13:15.136Z,9.46
2019-04-05T14:14:15.141Z,9.45
2019-04-05T14:15:15.110Z,9.38
2019-04-05T14:16:15.094Z,9.28
2019-04-05T14:17:15.084Z,9.28
2019-04-05T14:18:15.480Z,9.38
2019-04-05T14:19:18.372Z,9.18
2019-04-05T14:20:18.705Z,9.23
2019-04-05T14:21:15.038Z,9.16
2019-04-05T14:22:15.023Z,9.15
2019-04-05T14:23:15.012Z,9.20
2019-04-05T14:24:15.074Z,9.21
2019-04-05T14:25:14.993Z,9.10
2019-04-05T14:26:14.979Z,9.21
2019-04-05T14:27:14.964Z,9.15
2019-04-05T14:28:14.955Z,9.05
2019-04-05T14:29:14.942Z,9.23
2019-04-05T14:30:14.948Z,9.24
2019-04-05T14:31:14.918Z,9.18
2019-04-05T14:32:21.333Z,9.18
2019-04-05T14:33:15.892Z,9.10
2019-04-05T14:34:14.881Z,9.12